createdAt,value
2023-05-02T00:00:29.185Z,7.65
2023-05-02T00:01:05.213Z,7.55
2023-05-02T00:01:37.836Z,7.73
2023-05-02T00:02:10.316Z,7.40
2023-05-02T00:02:42.891Z,7.90
2023-05-02T00:03:16.832Z,7.90
2023-05-02T00:03:49.386Z,8.15
2023-05-02T00:04:22.071Z,7.40
2023-05-02T00:04:54.527Z,7.63
2023-05-02T00:05:27.017Z,7.43
2023-05-02T00:06:00.589Z,7.40
2023-05-02T00:06:33.007Z,7.53
2023-05-02T00:07:05.935Z,7.70
2023-05-02T00:07:38.307Z,7.97
2023-05-02T00:08:11.462Z,8.10
2023-05-02T00:08:43.730Z,7.50
2023-05-02T00:09:16.184Z,8.32
2023-05-02T00:09:48.428Z,7.78
2023-05-02T00:10:21.038Z,7.20
2023-05-02T00:10:53.429Z,7.30
2023-05-02T00:11:25.836Z,7.78
2023-05-02T00:11:58.150Z,7.47
2023-05-02T00:12:30.470Z,8.17
2023-05-02T00:13:02.878Z,7.68
2023-05-02T00:13:35.180Z,7.82
2023-05-02T00:14:07.446Z,8.00
2023-05-02T00:14:39.724Z,7.43
2023-05-02T00:15:12.437Z,8.05
2023-05-02T00:15:44.700Z,7.80
2023-05-02T00:16:18.383Z,8.18
2023-05-02T00:16:50.792Z,8.02
2023-05-02T00:17:23.159Z,7.78
2023-05-02T00:17:55.759Z,7.93
2023-05-02T00:18:28.091Z,7.72
2023-05-02T00:19:00.381Z,7.57
2023-05-02T00:19:32.736Z,8.15
2023-05-02T00:20:05.238Z,8.18
2023-05-02T00:20:39.753Z,7.78
2023-05-02T00:21:12.977Z,8.02
2023-05-02T00:21:47.636Z,7.40
2023-05-02T00:22:20.176Z,7.72
2023-05-02T00:22:52.546Z,9.75
2023-05-02T00:23:24.828Z,10.90
2023-05-02T00:24:00.444Z,10.70
2023-05-02T00:24:33.320Z,8.82
2023-05-02T00:25:06.202Z,9.20
2023-05-02T00:25:43.883Z,11.35
2023-05-02T00:26:16.557Z,14.20
2023-05-02T00:26:48.966Z,10.65
2023-05-02T00:27:21.484Z,8.82
2023-05-02T00:27:53.849Z,8.80
2023-05-02T00:28:27.361Z,9.05
2023-05-02T00:28:59.673Z,9.57
2023-05-02T00:29:31.958Z,9.10
2023-05-02T00:30:04.448Z,8.88
2023-05-02T00:30:37.130Z,8.80
2023-05-02T00:31:09.532Z,8.70
2023-05-02T00:31:42.222Z,8.48
2023-05-02T00:32:14.849Z,8.07
2023-05-02T00:32:47.373Z,8.27
2023-05-02T00:33:19.817Z,7.78
2023-05-02T00:33:52.187Z,7.80
2023-05-02T00:34:24.959Z,8.17
2023-05-02T00:34:57.262Z,7.93
2023-05-02T00:35:29.747Z,8.27
2023-05-02T00:36:02.270Z,8.20
2023-05-02T00:36:34.594Z,7.88
2023-05-02T00:37:07.572Z,7.63
2023-05-02T00:37:39.900Z,8.15
2023-05-02T00:38:12.421Z,7.85
2023-05-02T00:38:45.057Z,8.25
2023-05-02T00:39:17.279Z,7.93
2023-05-02T00:39:49.962Z,8.27
2023-05-02T00:40:22.455Z,8.70
2023-05-02T00:40:55.665Z,9.32
2023-05-02T00:41:27.962Z,9.50
2023-05-02T00:42:00.519Z,9.00
2023-05-02T00:42:36.732Z,8.63
2023-05-02T00:43:09.093Z,8.90
2023-05-02T00:43:41.598Z,8.98
2023-05-02T00:44:13.898Z,9.57
2023-05-02T00:44:47.082Z,9.27
2023-05-02T00:45:19.498Z,9.23
2023-05-02T00:45:52.723Z,8.65
2023-05-02T00:46:25.443Z,8.88
2023-05-02T00:46:58.754Z,8.18
2023-05-02T00:47:31.358Z,8.40
2023-05-02T00:48:03.967Z,8.40
2023-05-02T00:48:36.745Z,8.88
2023-05-02T00:49:09.548Z,8.48
2023-05-02T00:49:42.369Z,8.18
2023-05-02T00:50:14.899Z,7.75
2023-05-02T00:50:47.194Z,8.50
2023-05-02T00:51:19.812Z,8.07
2023-05-02T00:51:53.350Z,7.97
2023-05-02T00:52:25.665Z,7.80
2023-05-02T00:52:57.949Z,7.78
2023-05-02T00:53:30.223Z,7.80
2023-05-02T00:54:02.593Z,7.82
2023-05-02T00:54:36.123Z,7.53
2023-05-02T00:55:08.894Z,8.48
2023-05-02T00:55:41.280Z,7.18
2023-05-02T00:56:13.596Z,7.10
2023-05-02T00:56:46.644Z,7.72
2023-05-02T00:57:18.975Z,8.15
2023-05-02T00:57:51.481Z,8.07
2023-05-02T00:58:23.808Z,7.35
2023-05-02T00:58:58.126Z,7.28
2023-05-02T00:59:31.030Z,7.80
2023-05-02T01:00:05.140Z,7.65
2023-05-02T01:01:03.819Z,7.55
2023-05-02T01:01:54.786Z,7.38
2023-05-02T01:02:59.684Z,7.57
2023-05-02T01:03:48.010Z,7.20
2023-05-02T01:04:20.758Z,7.38
2023-05-02T01:04:53.120Z,8.38
2023-05-02T01:05:30.496Z,8.00
2023-05-02T01:06:17.008Z,7.75
2023-05-02T01:06:58.135Z,7.45
2023-05-02T01:07:37.604Z,7.50
2023-05-02T01:08:15.795Z,7.70
2023-05-02T01:08:53.298Z,7.13
2023-05-02T01:09:40.190Z,7.63
2023-05-02T01:10:18.242Z,7.40
2023-05-02T01:10:57.971Z,7.30
2023-05-02T01:11:33.855Z,7.90
2023-05-02T01:12:15.294Z,8.15
2023-05-02T01:12:47.646Z,7.35
2023-05-02T01:13:26.477Z,7.53
2023-05-02T01:13:59.631Z,7.15
2023-05-02T01:14:34.976Z,6.90
2023-05-02T01:15:10.722Z,7.25
2023-05-02T01:15:43.751Z,8.20
2023-05-02T01:16:17.427Z,7.43
2023-05-02T01:16:50.432Z,7.50
2023-05-02T01:17:25.333Z,8.45
2023-05-02T01:18:00.963Z,8.38
2023-05-02T01:18:38.994Z,8.20
2023-05-02T01:19:13.969Z,8.65
2023-05-02T01:19:50.392Z,8.80
2023-05-02T01:20:24.142Z,9.02
2023-05-02T01:20:59.568Z,8.77
2023-05-02T01:21:32.390Z,9.33
2023-05-02T01:22:06.362Z,9.18
2023-05-02T01:22:41.342Z,9.98
2023-05-02T01:23:23.106Z,10.23
2023-05-02T01:24:12.908Z,9.88
2023-05-02T01:24:54.396Z,9.30
2023-05-02T01:25:31.240Z,9.18
2023-05-02T01:26:10.643Z,8.85
2023-05-02T01:26:42.918Z,9.38
2023-05-02T01:27:19.593Z,9.65
2023-05-02T01:28:10.640Z,9.77
2023-05-02T01:29:02.706Z,9.57
2023-05-02T01:29:36.260Z,9.15
2023-05-02T01:30:10.095Z,9.13
2023-05-02T01:30:43.160Z,9.65
2023-05-02T01:31:16.584Z,9.00
2023-05-02T01:31:50.270Z,9.10
2023-05-02T01:32:23.787Z,8.68
2023-05-02T01:32:58.126Z,8.88
2023-05-02T01:33:30.770Z,8.57
2023-05-02T01:34:04.607Z,8.17
2023-05-02T01:34:38.975Z,8.15
2023-05-02T01:35:11.677Z,8.60
2023-05-02T01:35:44.954Z,8.25
2023-05-02T01:36:17.764Z,8.27
2023-05-02T01:36:51.226Z,7.97
2023-05-02T01:37:24.317Z,7.88
2023-05-02T01:37:57.695Z,7.80
2023-05-02T01:38:30.772Z,8.50
2023-05-02T01:39:04.506Z,7.90
2023-05-02T01:39:38.484Z,8.40
2023-05-02T01:40:11.476Z,8.20
2023-05-02T01:40:47.484Z,8.35
2023-05-02T01:41:21.129Z,8.00
2023-05-02T01:41:54.849Z,7.75
2023-05-02T01:42:27.738Z,7.60
2023-05-02T01:43:01.262Z,7.68
2023-05-02T01:43:34.914Z,7.50
2023-05-02T01:44:08.367Z,7.97
2023-05-02T01:44:42.674Z,7.78
2023-05-02T01:45:15.744Z,8.00
2023-05-02T01:45:50.359Z,7.70
2023-05-02T01:46:23.144Z,8.05
2023-05-02T01:46:56.557Z,8.48
2023-05-02T01:47:29.941Z,7.75
2023-05-02T01:48:03.216Z,7.32
2023-05-02T01:48:36.854Z,8.30
2023-05-02T01:49:09.468Z,7.95
2023-05-02T01:49:43.443Z,7.82
2023-05-02T01:50:18.858Z,7.50
2023-05-02T01:50:52.068Z,7.77
2023-05-02T01:51:30.684Z,7.65
2023-05-02T01:52:05.279Z,7.30
2023-05-02T01:52:38.731Z,7.80
2023-05-02T01:53:11.546Z,7.90
2023-05-02T01:53:44.808Z,8.13
2023-05-02T01:54:18.007Z,7.53
2023-05-02T01:54:51.162Z,7.47
2023-05-02T01:55:24.873Z,8.07
2023-05-02T01:55:57.614Z,7.38
2023-05-02T01:56:32.236Z,7.30
2023-05-02T01:57:06.342Z,7.43
2023-05-02T01:57:40.184Z,7.40
2023-05-02T01:58:14.623Z,7.93
2023-05-02T01:58:47.975Z,7.57
2023-05-02T01:59:22.855Z,7.10
2023-05-02T01:59:57.009Z,7.18
2023-05-02T02:00:30.136Z,7.30
2023-05-02T02:01:03.926Z,6.93
2023-05-02T02:01:39.040Z,7.30
2023-05-02T02:02:12.204Z,6.80
2023-05-02T02:02:45.712Z,6.70
2023-05-02T02:03:20.147Z,6.70
2023-05-02T02:03:52.953Z,7.28
2023-05-02T02:04:26.040Z,7.03
2023-05-02T02:04:59.405Z,6.88
2023-05-02T02:05:32.395Z,6.72
2023-05-02T02:06:05.658Z,6.30
2023-05-02T02:06:38.238Z,6.60
2023-05-02T02:07:13.193Z,6.45
2023-05-02T02:07:45.727Z,7.03
2023-05-02T02:08:18.064Z,6.20
2023-05-02T02:08:50.969Z,6.30
2023-05-02T02:09:24.242Z,7.22
2023-05-02T02:09:56.632Z,6.65
2023-05-02T02:10:32.078Z,6.68
2023-05-02T02:11:09.184Z,6.70
2023-05-02T02:11:52.559Z,6.43
2023-05-02T02:12:27.193Z,5.90
2023-05-02T02:13:04.011Z,6.22
2023-05-02T02:13:39.332Z,6.10
2023-05-02T02:14:14.999Z,6.13
2023-05-02T02:14:50.081Z,6.15
2023-05-02T02:15:27.454Z,6.93
2023-05-02T02:16:01.363Z,6.00
2023-05-02T02:16:34.505Z,5.72
2023-05-02T02:17:12.482Z,5.80
2023-05-02T02:17:55.709Z,6.10
2023-05-02T02:18:29.126Z,6.20
2023-05-02T02:19:07.484Z,6.10
2023-05-02T02:19:41.154Z,5.63
2023-05-02T02:20:15.424Z,5.97
2023-05-02T02:20:48.962Z,5.90
2023-05-02T02:21:22.430Z,6.50
2023-05-02T02:21:56.019Z,6.13
2023-05-02T02:22:29.186Z,6.18
2023-05-02T02:23:03.361Z,6.20
2023-05-02T02:23:36.869Z,5.80
2023-05-02T02:24:09.803Z,6.13
2023-05-02T02:24:43.722Z,6.32
2023-05-02T02:25:16.760Z,6.03
2023-05-02T02:25:50.670Z,6.40
2023-05-02T02:26:23.790Z,6.38
2023-05-02T02:26:56.096Z,6.20
2023-05-02T02:27:28.544Z,6.63
2023-05-02T02:28:01.164Z,5.82
2023-05-02T02:28:34.442Z,6.07
2023-05-02T02:29:06.899Z,6.57
2023-05-02T02:29:39.274Z,6.47
2023-05-02T02:30:11.965Z,5.88
2023-05-02T02:30:44.696Z,6.60
2023-05-02T02:31:17.031Z,6.60
2023-05-02T02:31:49.328Z,6.50
2023-05-02T02:32:21.603Z,6.15
2023-05-02T02:32:54.397Z,6.25
2023-05-02T02:33:30.115Z,5.88
2023-05-02T02:34:04.067Z,6.32
2023-05-02T02:34:36.460Z,5.88
2023-05-02T02:35:09.118Z,6.70
2023-05-02T02:35:43.336Z,6.32
2023-05-02T02:36:17.003Z,6.20
2023-05-02T02:36:55.676Z,6.20
2023-05-02T02:37:47.009Z,6.50
2023-05-02T02:38:29.709Z,6.43
2023-05-02T02:39:01.975Z,6.35
2023-05-02T02:39:47.378Z,5.90
2023-05-02T02:40:23.950Z,6.03
2023-05-02T02:40:57.687Z,6.32
2023-05-02T02:41:36.587Z,6.53
2023-05-02T02:42:16.339Z,6.28
2023-05-02T02:43:00.492Z,6.60
2023-05-02T02:43:38.617Z,6.32
2023-05-02T02:44:18.726Z,6.05
2023-05-02T02:45:04.174Z,7.13
2023-05-02T02:45:47.339Z,5.95
2023-05-02T02:46:19.665Z,5.65
2023-05-02T02:47:02.828Z,6.22
2023-05-02T02:47:49.419Z,6.20
2023-05-02T02:48:21.735Z,6.68
2023-05-02T02:48:58.714Z,5.72
2023-05-02T02:49:47.438Z,6.10
2023-05-02T02:50:35.564Z,6.60
2023-05-02T02:51:16.176Z,6.50
2023-05-02T02:52:15.799Z,6.40
2023-05-02T02:52:55.480Z,6.47
2023-05-02T02:53:46.708Z,6.20
2023-05-02T02:54:27.112Z,6.00
2023-05-02T02:55:06.506Z,6.68
2023-05-02T02:55:43.027Z,6.50
2023-05-02T02:56:22.869Z,6.05
2023-05-02T02:57:18.828Z,6.20
2023-05-02T02:57:58.409Z,6.07
2023-05-02T02:58:46.524Z,5.95
2023-05-02T02:59:18.842Z,6.57
2023-05-02T02:59:59.082Z,6.22
2023-05-02T03:00:33.001Z,6.70
2023-05-02T03:01:06.768Z,5.97
2023-05-02T03:01:40.757Z,6.65
2023-05-02T03:02:15.353Z,6.53
2023-05-02T03:02:48.273Z,6.28
2023-05-02T03:03:22.839Z,6.30
2023-05-02T03:03:57.579Z,5.85
2023-05-02T03:04:34.224Z,6.40
2023-05-02T03:05:07.543Z,6.57
2023-05-02T03:05:39.999Z,6.13
2023-05-02T03:06:13.021Z,6.43
2023-05-02T03:06:45.400Z,5.88
2023-05-02T03:07:18.691Z,6.32
2023-05-02T03:07:51.851Z,6.20
2023-05-02T03:08:27.077Z,5.93
2023-05-02T03:08:59.565Z,6.00
2023-05-02T03:09:41.916Z,6.28
2023-05-02T03:10:15.455Z,6.38
2023-05-02T03:10:48.221Z,6.80
2023-05-02T03:11:21.299Z,6.10
2023-05-02T03:11:53.536Z,6.18
2023-05-02T03:12:25.799Z,6.40
2023-05-02T03:12:58.631Z,6.57
2023-05-02T03:13:31.263Z,6.50
2023-05-02T03:14:03.570Z,5.93
2023-05-02T03:14:37.101Z,6.43
2023-05-02T03:15:28.603Z,5.80
2023-05-02T03:16:12.529Z,5.95
2023-05-02T03:16:45.252Z,6.55
2023-05-02T03:17:20.574Z,7.07
2023-05-02T03:17:52.819Z,6.40
2023-05-02T03:18:25.312Z,6.50
2023-05-02T03:18:59.824Z,5.88
2023-05-02T03:19:32.850Z,6.10
2023-05-02T03:20:05.630Z,6.40
2023-05-02T03:20:38.181Z,6.10
2023-05-02T03:21:10.734Z,5.90
2023-05-02T03:21:43.698Z,6.68
2023-05-02T03:22:23.599Z,6.40
2023-05-02T03:22:55.974Z,6.47
2023-05-02T03:23:28.231Z,6.20
2023-05-02T03:24:01.695Z,5.78
2023-05-02T03:24:34.692Z,6.32
2023-05-02T03:25:08.477Z,6.30
2023-05-02T03:25:41.123Z,6.05
2023-05-02T03:26:17.017Z,6.13
2023-05-02T03:26:50.318Z,6.03
2023-05-02T03:27:28.573Z,6.05
2023-05-02T03:28:00.977Z,6.45
2023-05-02T03:28:33.282Z,6.72
2023-05-02T03:29:05.949Z,6.75
2023-05-02T03:29:43.410Z,6.47
2023-05-02T03:30:17.550Z,6.15
2023-05-02T03:30:50.258Z,6.40
2023-05-02T03:31:24.071Z,6.55
2023-05-02T03:31:58.890Z,6.53
2023-05-02T03:32:31.529Z,6.43
2023-05-02T03:33:05.089Z,6.15
2023-05-02T03:33:37.769Z,9.48
2023-05-02T03:34:10.524Z,10.77
2023-05-02T03:34:43.696Z,7.93
2023-05-02T03:35:17.036Z,7.32
2023-05-02T03:35:51.401Z,7.68
2023-05-02T03:36:23.848Z,7.10
2023-05-02T03:36:58.999Z,7.07
2023-05-02T03:37:31.725Z,7.13
2023-05-02T03:38:05.587Z,6.55
2023-05-02T03:38:38.014Z,6.75
2023-05-02T03:39:13.580Z,7.15
2023-05-02T03:39:46.496Z,6.10
2023-05-02T03:40:22.052Z,6.20
2023-05-02T03:40:56.987Z,6.50
2023-05-02T03:41:29.775Z,6.05
2023-05-02T03:42:08.099Z,6.57
2023-05-02T03:42:41.516Z,5.90
2023-05-02T03:43:24.970Z,6.50
2023-05-02T03:43:57.799Z,5.70
2023-05-02T03:44:31.896Z,6.40
2023-05-02T03:45:04.410Z,6.55
2023-05-02T03:45:36.680Z,6.57
2023-05-02T03:46:09.870Z,6.00
2023-05-02T03:46:45.315Z,6.35
2023-05-02T03:47:18.662Z,5.88
2023-05-02T03:47:51.069Z,6.05
2023-05-02T03:48:23.753Z,5.88
2023-05-02T03:48:57.738Z,6.00
2023-05-02T03:49:30.229Z,6.10
2023-05-02T03:50:03.986Z,6.28
2023-05-02T03:50:37.378Z,6.70
2023-05-02T03:51:10.174Z,5.97
2023-05-02T03:51:47.653Z,5.38
2023-05-02T03:52:25.156Z,6.05
2023-05-02T03:52:59.319Z,6.20
2023-05-02T03:53:41.657Z,6.40
2023-05-02T03:54:14.221Z,5.90
2023-05-02T03:54:48.209Z,5.90
2023-05-02T03:55:21.523Z,6.07
2023-05-02T03:55:54.564Z,6.05
2023-05-02T03:56:36.828Z,5.85
2023-05-02T03:57:21.511Z,6.43
2023-05-02T03:57:54.264Z,6.30
2023-05-02T03:58:27.290Z,6.20
2023-05-02T03:59:00.460Z,6.18
2023-05-02T03:59:34.413Z,5.72
2023-05-02T04:00:12.920Z,5.80
2023-05-02T04:00:50.976Z,6.27
2023-05-02T04:01:23.871Z,5.63
2023-05-02T04:01:57.460Z,6.28
2023-05-02T04:02:38.880Z,6.32
2023-05-02T04:03:14.809Z,5.80
2023-05-02T04:03:50.677Z,5.78
2023-05-02T04:04:24.760Z,5.43
2023-05-02T04:04:59.658Z,5.63
2023-05-02T04:05:32.462Z,5.75
2023-05-02T04:06:05.213Z,5.63
2023-05-02T04:06:38.678Z,6.23
2023-05-02T04:07:18.547Z,5.82
2023-05-02T04:07:55.321Z,5.78
2023-05-02T04:08:27.628Z,5.95
2023-05-02T04:09:00.192Z,5.93
2023-05-02T04:09:38.768Z,6.03
2023-05-02T04:10:16.857Z,5.90
2023-05-02T04:10:55.630Z,6.15
2023-05-02T04:11:28.147Z,5.75
2023-05-02T04:12:01.633Z,5.80
2023-05-02T04:12:34.313Z,6.17
2023-05-02T04:13:07.234Z,5.70
2023-05-02T04:13:40.656Z,6.57
2023-05-02T04:14:13.230Z,6.15
2023-05-02T04:14:47.394Z,5.80
2023-05-02T04:15:20.028Z,5.82
2023-05-02T04:15:53.569Z,5.72
2023-05-02T04:16:28.454Z,5.80
2023-05-02T04:17:00.877Z,5.63
2023-05-02T04:17:47.232Z,6.28
2023-05-02T04:18:19.999Z,6.10
2023-05-02T04:18:52.294Z,7.20
2023-05-02T04:19:25.157Z,6.88
2023-05-02T04:19:57.541Z,7.68
2023-05-02T04:20:32.421Z,7.22
2023-05-02T04:21:05.030Z,6.78
2023-05-02T04:21:37.643Z,6.25
2023-05-02T04:22:12.421Z,6.10
2023-05-02T04:22:50.431Z,6.63
2023-05-02T04:23:22.873Z,5.93
2023-05-02T04:24:00.326Z,5.70
2023-05-02T04:24:33.948Z,5.90
2023-05-02T04:25:07.369Z,6.45
2023-05-02T04:25:41.668Z,6.55
2023-05-02T04:26:15.041Z,6.55
2023-05-02T04:26:56.733Z,6.03
2023-05-02T04:27:29.261Z,6.30
2023-05-02T04:28:02.352Z,5.93
2023-05-02T04:28:35.744Z,5.75
2023-05-02T04:29:08.327Z,5.43
2023-05-02T04:29:40.840Z,5.63
2023-05-02T04:30:14.734Z,5.53
2023-05-02T04:30:50.699Z,5.80
2023-05-02T04:31:26.084Z,6.38
2023-05-02T04:31:58.408Z,6.22
2023-05-02T04:32:33.145Z,5.90
2023-05-02T04:33:07.015Z,5.47
2023-05-02T04:33:42.005Z,6.60
2023-05-02T04:34:14.942Z,6.28
2023-05-02T04:34:50.995Z,6.35
2023-05-02T04:35:23.782Z,6.10
2023-05-02T04:35:56.113Z,5.70
2023-05-02T04:36:29.051Z,6.13
2023-05-02T04:37:01.737Z,5.47
2023-05-02T04:37:34.362Z,6.03
2023-05-02T04:38:06.947Z,5.63
2023-05-02T04:38:40.205Z,5.82
2023-05-02T04:39:12.660Z,6.30
2023-05-02T04:39:51.176Z,6.38
2023-05-02T04:40:27.676Z,5.68
2023-05-02T04:41:08.789Z,6.40
2023-05-02T04:41:47.172Z,6.03
2023-05-02T04:42:20.681Z,6.10
2023-05-02T04:43:00.637Z,6.30
2023-05-02T04:43:40.935Z,5.85
2023-05-02T04:44:13.147Z,5.90
2023-05-02T04:44:45.657Z,6.65
2023-05-02T04:45:18.497Z,8.13
2023-05-02T04:45:51.859Z,9.13
2023-05-02T04:46:31.928Z,7.28
2023-05-02T04:47:04.910Z,6.77
2023-05-02T04:47:37.236Z,6.93
2023-05-02T04:48:09.654Z,6.80
2023-05-02T04:48:42.408Z,6.78
2023-05-02T04:49:14.766Z,6.72
2023-05-02T04:49:47.131Z,6.70
2023-05-02T04:50:19.823Z,6.22
2023-05-02T04:50:53.819Z,6.25
2023-05-02T04:51:28.162Z,6.00
2023-05-02T04:52:01.220Z,5.97
2023-05-02T04:52:33.706Z,5.93
2023-05-02T04:53:06.165Z,5.78
2023-05-02T04:53:39.212Z,6.22
2023-05-02T04:54:12.821Z,6.10
2023-05-02T04:54:46.191Z,6.40
2023-05-02T04:55:18.535Z,6.05
2023-05-02T04:55:51.203Z,6.15
2023-05-02T04:56:24.183Z,5.80
2023-05-02T04:56:57.043Z,5.82
2023-05-02T04:57:30.452Z,6.30
2023-05-02T04:58:05.000Z,6.40
2023-05-02T04:58:38.602Z,5.80
2023-05-02T04:59:13.945Z,6.13
2023-05-02T04:59:46.368Z,6.28
2023-05-02T05:00:18.667Z,6.00
2023-05-02T05:00:51.044Z,5.55
2023-05-02T05:01:24.828Z,6.25
2023-05-02T05:01:57.546Z,6.40
2023-05-02T05:02:29.958Z,6.15
2023-05-02T05:03:03.488Z,6.18
2023-05-02T05:03:35.962Z,6.30
2023-05-02T05:04:08.982Z,5.88
2023-05-02T05:04:41.808Z,6.95
2023-05-02T05:05:14.256Z,6.68
2023-05-02T05:05:47.515Z,6.40
2023-05-02T05:06:22.771Z,6.45
2023-05-02T05:06:55.938Z,6.35
2023-05-02T05:07:29.332Z,6.70
2023-05-02T05:08:02.586Z,6.20
2023-05-02T05:08:38.329Z,6.10
2023-05-02T05:09:10.728Z,5.97
2023-05-02T05:09:43.448Z,6.03
2023-05-02T05:10:15.977Z,6.50
2023-05-02T05:10:51.583Z,6.22
2023-05-02T05:11:25.673Z,6.50
2023-05-02T05:11:58.676Z,6.20
2023-05-02T05:12:30.962Z,6.38
2023-05-02T05:13:04.578Z,6.55
2023-05-02T05:13:38.203Z,6.25
2023-05-02T05:14:12.084Z,6.20
2023-05-02T05:14:46.625Z,5.97
2023-05-02T05:15:22.656Z,6.38
2023-05-02T05:15:59.922Z,6.22
2023-05-02T05:16:35.636Z,6.35
2023-05-02T05:17:08.366Z,6.00
2023-05-02T05:17:40.893Z,6.47
2023-05-02T05:18:13.677Z,6.40
2023-05-02T05:18:46.339Z,6.68
2023-05-02T05:19:20.205Z,6.05
2023-05-02T05:19:52.452Z,6.13
2023-05-02T05:20:25.443Z,6.00
2023-05-02T05:21:00.882Z,6.03
2023-05-02T05:21:33.993Z,6.38
2023-05-02T05:22:08.459Z,6.07
2023-05-02T05:22:41.927Z,6.45
2023-05-02T05:23:16.219Z,6.22
2023-05-02T05:23:48.602Z,6.00
2023-05-02T05:24:26.874Z,6.47
2023-05-02T05:25:01.775Z,6.38
2023-05-02T05:25:36.397Z,6.07
2023-05-02T05:26:10.015Z,6.50
2023-05-02T05:26:43.116Z,6.80
2023-05-02T05:27:15.778Z,6.30
2023-05-02T05:27:48.091Z,6.78
2023-05-02T05:28:20.563Z,6.70
2023-05-02T05:28:52.918Z,6.35
2023-05-02T05:29:26.696Z,6.35
2023-05-02T05:30:00.125Z,6.53
2023-05-02T05:30:32.817Z,6.72
2023-05-02T05:31:09.974Z,6.43
2023-05-02T05:31:43.316Z,6.33
2023-05-02T05:32:18.569Z,6.30
2023-05-02T05:32:51.388Z,6.53
2023-05-02T05:33:23.969Z,7.07
2023-05-02T05:33:57.514Z,6.82
2023-05-02T05:34:31.151Z,6.15
2023-05-02T05:35:05.703Z,6.45
2023-05-02T05:35:38.012Z,6.47
2023-05-02T05:36:15.148Z,6.55
2023-05-02T05:36:47.828Z,6.30
2023-05-02T05:37:20.583Z,7.27
2023-05-02T05:37:53.927Z,6.50
2023-05-02T05:38:26.503Z,6.55
2023-05-02T05:38:58.784Z,6.97
2023-05-02T05:39:31.305Z,6.55
2023-05-02T05:40:08.863Z,6.82
2023-05-02T05:40:42.380Z,7.03
2023-05-02T05:41:15.117Z,7.18
2023-05-02T05:41:52.963Z,7.85
2023-05-02T05:42:26.150Z,8.80
2023-05-02T05:43:02.274Z,8.07
2023-05-02T05:43:38.909Z,7.10
2023-05-02T05:44:11.994Z,7.25
2023-05-02T05:44:44.384Z,8.32
2023-05-02T05:45:19.773Z,7.45
2023-05-02T05:45:52.671Z,7.43
2023-05-02T05:46:25.308Z,7.28
2023-05-02T05:46:57.746Z,7.40
2023-05-02T05:47:32.864Z,7.20
2023-05-02T05:48:06.039Z,7.38
2023-05-02T05:48:43.378Z,7.40
2023-05-02T05:49:16.782Z,7.10
2023-05-02T05:49:53.325Z,7.60
2023-05-02T05:50:26.024Z,7.22
2023-05-02T05:50:58.372Z,7.68
2023-05-02T05:51:32.084Z,6.13
2023-05-02T05:52:05.505Z,7.13
2023-05-02T05:52:38.406Z,7.50
2023-05-02T05:53:10.838Z,7.65
2023-05-02T05:53:44.849Z,6.80
2023-05-02T05:54:19.166Z,7.67
2023-05-02T05:54:54.121Z,7.22
2023-05-02T05:55:27.734Z,7.50
2023-05-02T05:56:00.269Z,7.50
2023-05-02T05:56:33.260Z,7.28
2023-05-02T05:57:13.056Z,15.68
2023-05-02T05:57:46.081Z,6.90
2023-05-02T05:58:19.164Z,7.32
2023-05-02T05:58:51.596Z,7.35
2023-05-02T05:59:24.041Z,6.70
2023-05-02T05:59:56.354Z,7.37
2023-05-02T06:00:29.317Z,7.20
2023-05-02T06:01:02.597Z,7.88
2023-05-02T06:01:36.016Z,7.60
2023-05-02T06:02:10.202Z,7.68
2023-05-02T06:02:42.779Z,7.05
2023-05-02T06:03:20.976Z,7.13
2023-05-02T06:03:53.370Z,7.38
2023-05-02T06:04:25.978Z,6.90
2023-05-02T06:04:59.012Z,6.90
2023-05-02T06:05:31.825Z,7.13
2023-05-02T06:06:04.780Z,6.68
2023-05-02T06:06:37.738Z,6.80
2023-05-02T06:07:10.038Z,7.13
2023-05-02T06:07:42.311Z,6.65
2023-05-02T06:08:15.910Z,7.15
2023-05-02T06:08:48.633Z,6.78
2023-05-02T06:09:21.192Z,6.63
2023-05-02T06:09:53.472Z,6.80
2023-05-02T06:10:26.103Z,6.78
2023-05-02T06:10:58.694Z,7.03
2023-05-02T06:11:31.010Z,7.03
2023-05-02T06:12:03.575Z,7.55
2023-05-02T06:12:37.950Z,6.97
2023-05-02T06:13:11.460Z,6.93
2023-05-02T06:13:46.971Z,7.18
2023-05-02T06:14:19.457Z,7.05
2023-05-02T06:14:54.214Z,6.97
2023-05-02T06:15:27.055Z,7.15
2023-05-02T06:16:02.993Z,6.63
2023-05-02T06:16:35.829Z,7.53
2023-05-02T06:17:08.440Z,7.32
2023-05-02T06:17:40.803Z,7.05
2023-05-02T06:18:14.150Z,7.15
2023-05-02T06:18:50.345Z,7.95
2023-05-02T06:19:22.825Z,7.55
2023-05-02T06:19:55.210Z,6.78
2023-05-02T06:20:27.564Z,6.63
2023-05-02T06:21:03.659Z,6.80
2023-05-02T06:21:38.709Z,7.13
2023-05-02T06:22:14.367Z,11.90
2023-05-02T06:22:46.754Z,10.00
2023-05-02T06:23:19.154Z,9.48
2023-05-02T06:23:51.597Z,8.30
2023-05-02T06:24:23.840Z,8.73
2023-05-02T06:24:56.376Z,7.53
2023-05-02T06:25:29.331Z,7.95
2023-05-02T06:26:02.514Z,7.15
2023-05-02T06:26:34.779Z,6.85
2023-05-02T06:27:07.048Z,6.40
2023-05-02T06:27:39.330Z,7.47
2023-05-02T06:28:12.053Z,7.20
2023-05-02T06:28:44.604Z,7.45
2023-05-02T06:29:16.868Z,7.65
2023-05-02T06:29:51.417Z,7.68
2023-05-02T06:30:23.699Z,7.47
2023-05-02T06:30:59.550Z,7.43
2023-05-02T06:31:32.110Z,7.43
2023-05-02T06:32:04.741Z,8.05
2023-05-02T06:32:37.149Z,7.05
2023-05-02T06:33:09.797Z,7.37
2023-05-02T06:33:42.957Z,7.18
2023-05-02T06:34:15.262Z,7.85
2023-05-02T06:34:47.519Z,8.05
2023-05-02T06:35:19.876Z,8.40
2023-05-02T06:35:53.408Z,7.93
2023-05-02T06:36:26.179Z,8.65
2023-05-02T06:36:58.539Z,7.57
2023-05-02T06:37:37.018Z,7.53
2023-05-02T06:38:09.264Z,7.30
2023-05-02T06:38:41.691Z,7.20
2023-05-02T06:39:14.017Z,7.90
2023-05-02T06:39:46.567Z,7.70
2023-05-02T06:40:18.904Z,7.63
2023-05-02T06:40:51.627Z,7.78
2023-05-02T06:41:23.903Z,7.78
2023-05-02T06:41:59.187Z,7.82
2023-05-02T06:42:32.808Z,6.90
2023-05-02T06:43:05.589Z,7.38
2023-05-02T06:43:38.261Z,7.63
2023-05-02T06:44:10.677Z,7.53
2023-05-02T06:44:42.950Z,7.32
2023-05-02T06:45:15.245Z,7.40
2023-05-02T06:45:47.513Z,7.60
2023-05-02T06:46:20.994Z,6.90
2023-05-02T06:46:53.838Z,7.20
2023-05-02T06:47:26.903Z,7.40
2023-05-02T06:47:59.296Z,7.50
2023-05-02T06:48:31.562Z,7.80
2023-05-02T06:49:04.020Z,7.40
2023-05-02T06:49:36.283Z,7.30
2023-05-02T06:50:08.766Z,7.03
2023-05-02T06:50:41.211Z,7.13
2023-05-02T06:51:14.573Z,7.07
2023-05-02T06:51:47.276Z,10.82
2023-05-02T06:52:19.824Z,8.35
2023-05-02T06:52:52.020Z,8.48
2023-05-02T06:53:24.319Z,7.15
2023-05-02T06:53:56.565Z,8.35
2023-05-02T06:54:28.846Z,6.45
2023-05-02T06:55:01.368Z,7.07
2023-05-02T06:55:33.726Z,6.78
2023-05-02T06:56:06.664Z,7.13
2023-05-02T06:56:39.059Z,6.70
2023-05-02T06:57:11.441Z,6.78
2023-05-02T06:57:43.971Z,6.90
2023-05-02T06:58:16.479Z,7.25
2023-05-02T06:58:49.542Z,6.72
2023-05-02T06:59:21.797Z,6.97
2023-05-02T06:59:54.202Z,6.72
2023-05-02T07:00:26.743Z,7.23
2023-05-02T07:00:59.122Z,7.07
2023-05-02T07:01:31.890Z,7.10
2023-05-02T07:02:05.589Z,6.88
2023-05-02T07:02:38.058Z,6.53
2023-05-02T07:03:11.684Z,6.45
2023-05-02T07:03:44.064Z,6.47
2023-05-02T07:04:16.490Z,6.78
2023-05-02T07:04:48.854Z,7.30
2023-05-02T07:05:21.657Z,6.78
2023-05-02T07:05:53.938Z,7.00
2023-05-02T07:06:26.444Z,7.25
2023-05-02T07:06:58.949Z,7.18
2023-05-02T07:07:31.736Z,7.40
2023-05-02T07:08:05.360Z,6.68
2023-05-02T07:08:37.829Z,6.20
2023-05-02T07:09:10.451Z,6.95
2023-05-02T07:09:42.737Z,6.80
2023-05-02T07:10:15.052Z,6.93
2023-05-02T07:10:47.492Z,6.93
2023-05-02T07:11:21.702Z,6.73
2023-05-02T07:11:54.179Z,6.53
2023-05-02T07:12:27.020Z,6.70
2023-05-02T07:12:59.363Z,6.63
2023-05-02T07:13:32.101Z,5.95
2023-05-02T07:14:04.451Z,6.10
2023-05-02T07:14:36.717Z,6.13
2023-05-02T07:15:09.246Z,6.05
2023-05-02T07:15:41.794Z,6.45
2023-05-02T07:16:14.278Z,6.50
2023-05-02T07:16:46.719Z,6.60
2023-05-02T07:17:19.091Z,6.63
2023-05-02T07:17:51.660Z,6.72
2023-05-02T07:18:24.041Z,6.82
2023-05-02T07:18:56.436Z,6.40
2023-05-02T07:19:28.737Z,6.45
2023-05-02T07:20:01.200Z,6.90
2023-05-02T07:20:33.893Z,5.90
2023-05-02T07:21:06.218Z,6.72
2023-05-02T07:21:38.472Z,7.00
2023-05-02T07:22:10.918Z,6.90
2023-05-02T07:22:43.427Z,7.25
2023-05-02T07:23:15.843Z,7.05
2023-05-02T07:23:48.301Z,6.93
2023-05-02T07:24:20.774Z,7.00
2023-05-02T07:24:59.725Z,6.25
2023-05-02T07:25:32.074Z,6.32
2023-05-02T07:26:06.434Z,6.30
2023-05-02T07:26:38.850Z,5.95
2023-05-02T07:27:11.563Z,5.80
2023-05-02T07:27:43.918Z,6.70
2023-05-02T07:28:16.796Z,6.32
2023-05-02T07:28:49.186Z,5.88
2023-05-02T07:29:21.605Z,6.65
2023-05-02T07:29:54.135Z,6.25
2023-05-02T07:30:26.420Z,6.25
2023-05-02T07:30:59.092Z,6.40
2023-05-02T07:31:31.694Z,6.20
2023-05-02T07:32:04.418Z,6.20
2023-05-02T07:32:36.980Z,5.60
2023-05-02T07:33:09.339Z,6.03
2023-05-02T07:33:42.038Z,5.55
2023-05-02T07:34:14.441Z,5.57
2023-05-02T07:34:46.720Z,5.90
2023-05-02T07:35:18.991Z,5.70
2023-05-02T07:35:51.568Z,5.57
2023-05-02T07:36:23.840Z,5.85